Time;durP1;ratioP1;P1;durP2;ratioP2;P2;SDS_P1;SDS_P2;PMS_P1;PMS_P2;Temp;Humidity;BMP_temperature;BMP_pressure;BME280_temperature;BME280_humidity;BME280_pressure;Samples;Min_cycle;Max_cycle;Signal;HPM_P1;HPM_P2
2022/04/17 00:01:56;;;;;;;;;;;10.70;40.10;;;;;;8377475;28;20249;-72
2022/04/17 00:05:58;;;;;;;;;;;10.70;39.90;;;;;;8376659;28;19920;-72
2022/04/17 00:10:01;;;;;;;;;;;10.70;40.20;;;;;;8366390;28;19921;-72
2022/04/17 00:14:02;;;;;;;;;;;10.60;39.80;;;;;;8350262;28;1075054;-72
2022/04/17 00:18:04;;;;;;;;;;;10.60;40.10;;;;;;8365991;28;19928;-73
2022/04/17 00:22:06;;;;;;;;;;;10.50;40.20;;;;;;8373576;28;19962;-72
2022/04/17 00:26:08;;;;;;;;;;;10.50;39.90;;;;;;8382560;28;20364;-72
2022/04/17 00:30:10;;;;;;;;;;;10.40;40.10;;;;;;8376320;28;19928;-72
2022/04/17 00:34:12;;;;;;;;;;;10.30;40.00;;;;;;8399094;28;20019;-72
2022/04/17 00:38:14;;;;;;;;;;;10.20;40.20;;;;;;8376036;28;20329;-73
2022/04/17 00:42:15;;;;;;;;;;;10.20;40.20;;;;;;8384481;28;19920;-72
2022/04/17 00:46:17;;;;;;;;;;;10.10;39.70;;;;;;8378263;28;20364;-72
2022/04/17 00:50:19;;;;;;;;;;;10.10;40.10;;;;;;8393897;28;20337;-73
2022/04/17 00:54:22;;;;;;;;;;;10.00;40.10;;;;;;8385262;28;19920;-72
2022/04/17 00:58:29;;;;;;;;;;;9.80;41.10;;;;;;8381834;28;20292;-73
2022/04/17 01:02:31;;;;;;;;;;;9.70;40.70;;;;;;8373304;28;19936;-73
2022/04/17 01:06:33;;;;;;;;;;;9.60;40.90;;;;;;8382752;28;20391;-73
2022/04/17 01:10:35;;;;;;;;;;;9.40;40.90;;;;;;8389320;28;19924;-72
2022/04/17 01:14:38;;;;;;;;;;;9.30;40.70;;;;;;8396361;28;19920;-72
2022/04/17 01:18:51;;;;;;;;;;;9.10;41.60;;;;;;8380954;28;20253;-72
2022/04/17 01:26:55;;;;;;;;;;;9.00;41.20;;;;;;8387225;28;19920;-72
2022/04/17 01:27:17;;;;;;;;;;;8.80;41.40;;;;;;8369984;28;19924;-72
2022/04/17 01:31:23;;;;;;;;;;;8.60;41.30;;;;;;8372341;28;19932;-72
2022/04/17 01:35:27;;;;;;;;;;;8.40;41.50;;;;;;8390991;28;20366;-72
2022/04/17 01:39:29;;;;;;;;;;;8.30;41.60;;;;;;8379183;28;20313;-73
2022/04/17 01:43:31;;;;;;;;;;;8.10;41.60;;;;;;8397815;28;20388;-73
2022/04/17 01:47:32;;;;;;;;;;;8.10;41.90;;;;;;8364996;28;19924;-72
2022/04/17 01:51:38;;;;;;;;;;;7.90;41.90;;;;;;8371922;28;20006;-73
2022/04/17 01:55:40;;;;;;;;;;;7.80;42.20;;;;;;8393851;27;19920;-73
2022/04/17 01:59:42;;;;;;;;;;;7.70;42.50;;;;;;8368260;28;19927;-72
2022/04/17 02:03:43;;;;;;;;;;;7.60;42.70;;;;;;8396216;28;19931;-72
2022/04/17 02:07:45;;;;;;;;;;;7.60;42.90;;;;;;8380477;28;19935;-72
2022/04/17 02:11:47;;;;;;;;;;;7.60;42.70;;;;;;8363368;28;19943;-73
2022/04/17 02:15:53;;;;;;;;;;;7.60;43.20;;;;;;8367240;28;19921;-73
2022/04/17 02:19:57;;;;;;;;;;;7.60;43.00;;;;;;8372733;28;20432;-73
2022/04/17 02:24:02;;;;;;;;;;;7.60;43.10;;;;;;8385793;28;20223;-72
2022/04/17 02:28:04;;;;;;;;;;;7.50;43.60;;;;;;8393014;28;21923;-73
2022/04/17 02:32:09;;;;;;;;;;;7.40;42.80;;;;;;8381978;28;20375;-72
2022/04/17 02:36:11;;;;;;;;;;;7.30;43.30;;;;;;8380100;28;19920;-72
2022/04/17 02:40:12;;;;;;;;;;;7.20;43.40;;;;;;8374033;28;19920;-73
2022/04/17 02:44:14;;;;;;;;;;;7.10;43.60;;;;;;8396329;28;19921;-73
2022/04/17 02:48:16;;;;;;;;;;;7.00;43.70;;;;;;8386647;28;20348;-72
2022/04/17 02:52:17;;;;;;;;;;;7.00;43.60;;;;;;8375020;28;20339;-72
2022/04/17 02:56:19;;;;;;;;;;;6.90;43.90;;;;;;8396543;28;19920;-72
2022/04/17 03:00:21;;;;;;;;;;;6.80;44.10;;;;;;8373180;28;19947;-73
2022/04/17 03:08:43;;;;;;;;;;;6.80;45.10;;;;;;8379331;28;19920;-72
2022/04/17 03:12:45;;;;;;;;;;;6.90;44.70;;;;;;8376150;28;19931;-72
2022/04/17 03:16:47;;;;;;;;;;;6.90;44.40;;;;;;8381625;28;19981;-72
2022/04/17 03:20:49;;;;;;;;;;;6.90;44.90;;;;;;8384392;28;19975;-73
2022/04/17 03:24:50;;;;;;;;;;;6.90;44.80;;;;;;8391584;28;19920;-72
2022/04/17 03:28:55;;;;;;;;;;;7.00;44.70;;;;;;8386985;28;19921;-72
2022/04/17 03:32:57;;;;;;;;;;;7.00;44.50;;;;;;8390263;28;19927;-72
2022/04/17 03:36:59;;;;;;;;;;;7.00;44.40;;;;;;8390768;28;20371;-73
2022/04/17 03:41:00;;;;;;;;;;;7.00;44.70;;;;;;8379166;28;19920;-72
2022/04/17 03:45:09;;;;;;;;;;;6.90;44.20;;;;;;8421899;28;20038;-72
2022/04/17 03:49:10;;;;;;;;;;;6.90;44.30;;;;;;8387119;28;19931;-73
2022/04/17 03:53:12;;;;;;;;;;;6.80;44.60;;;;;;8385643;28;19924;-73
2022/04/17 03:57:14;;;;;;;;;;;6.80;44.80;;;;;;8385535;28;19932;-73
2022/04/17 04:01:16;;;;;;;;;;;6.80;44.90;;;;;;8398046;28;20546;-73
2022/04/17 04:05:18;;;;;;;;;;;6.80;44.80;;;;;;8382723;28;20015;-73
2022/04/17 04:09:20;;;;;;;;;;;6.80;44.80;;;;;;8399899;28;19920;-72
2022/04/17 04:13:22;;;;;;;;;;;6.70;44.80;;;;;;8392563;28;19920;-72
2022/04/17 04:17:23;;;;;;;;;;;6.80;44.80;;;;;;8389479;28;19938;-72
2022/04/17 04:21:25;;;;;;;;;;;6.80;44.60;;;;;;8392348;28;19939;-72
2022/04/17 04:25:27;;;;;;;;;;;6.70;44.80;;;;;;8390888;28;19921;-73
2022/04/17 04:29:28;;;;;;;;;;;6.70;44.80;;;;;;8396838;28;19973;-73
2022/04/17 04:33:31;;;;;;;;;;;6.70;44.90;;;;;;8387393;28;19931;-73
2022/04/17 04:37:32;;;;;;;;;;;6.70;45.30;;;;;;8384084;28;19948;-73
2022/04/17 04:41:34;;;;;;;;;;;6.60;45.50;;;;;;8393576;28;19921;-73
2022/04/17 04:46:21;;;;;;;;;;;6.60;45.30;;;;;;8401298;28;19925;-73
2022/04/17 04:49:57;;;;;;;;;;;6.60;45.20;;;;;;8394631;28;20287;-73
2022/04/17 04:53:59;;;;;;;;;;;6.50;45.10;;;;;;8385281;28;19968;-73
2022/04/17 04:58:01;;;;;;;;;;;6.60;45.60;;;;;;8391799;28;19939;-73
2022/04/17 05:02:03;;;;;;;;;;;6.60;45.50;;;;;;8381878;28;20276;-73
2022/04/17 05:06:04;;;;;;;;;;;6.60;45.50;;;;;;8418851;27;20336;-73
2022/04/17 05:10:06;;;;;;;;;;;6.70;46.20;;;;;;8383705;28;19946;-73
2022/04/17 05:14:11;;;;;;;;;;;6.70;46.00;;;;;;8379611;28;19928;-73
2022/04/17 05:18:13;;;;;;;;;;;6.80;46.30;;;;;;8372418;28;19928;-73
2022/04/17 05:22:17;;;;;;;;;;;6.90;46.80;;;;;;8366972;28;20363;-73
2022/04/17 05:26:19;;;;;;;;;;;7.00;47.80;;;;;;8385445;28;19924;-73
2022/04/17 05:30:21;;;;;;;;;;;7.10;48.00;;;;;;8392177;28;20264;-73
2022/04/17 05:34:22;;;;;;;;;;;7.20;49.30;;;;;;8386392;28;19920;-73
2022/04/17 05:38:24;;;;;;;;;;;7.30;48.50;;;;;;8395654;28;19929;-73
2022/04/17 05:42:26;;;;;;;;;;;7.40;49.30;;;;;;8379735;28;19928;-73
2022/04/17 05:46:29;;;;;;;;;;;7.50;48.60;;;;;;8417673;27;19927;-73
2022/04/17 05:50:31;;;;;;;;;;;7.60;49.00;;;;;;8406387;27;19935;-73
2022/04/17 05:54:33;;;;;;;;;;;7.80;49.10;;;;;;8403521;28;20368;-74
2022/04/17 05:58:35;;;;;;;;;;;7.90;50.50;;;;;;8392640;28;20344;-73
2022/04/17 06:02:38;;;;;;;5.20;3.05;;;8.00;48.40;;;;;;8384251;28;19932;-73
2022/04/17 06:06:39;;;;;;;5.13;2.85;;;8.00;50.60;;;;;;8371752;28;20053;-73
2022/04/17 06:10:41;;;;;;;5.43;2.75;;;8.20;50.40;;;;;;8370830;28;20484;-74
2022/04/17 06:14:43;;;;;;;4.53;2.25;;;8.30;50.90;;;;;;8360887;28;20046;-74
2022/04/17 06:18:45;;;;;;;;;;;8.40;51.20;;;;;;8369499;28;20502;-73
2022/04/17 06:22:47;;;;;;;;;;;8.50;50.40;;;;;;8366604;28;20335;-74
2022/04/17 06:26:49;;;;;;;;;;;8.60;50.20;;;;;;8376002;28;19981;-73
2022/04/17 06:30:51;;;;;;;;;;;8.70;51.40;;;;;;8380863;28;19974;-73
2022/04/17 06:34:53;;;;;;;;;;;8.80;52.20;;;;;;8371205;28;19927;-73
2022/04/17 06:38:54;;;;;;;;;;;8.90;50.90;;;;;;8370563;28;19931;-73
2022/04/17 06:42:57;;;;;;;;;;;9.10;50.70;;;;;;8358547;28;20399;-73
2022/04/17 06:46:58;;;;;;;;;;;9.20;50.70;;;;;;8366353;28;19924;-73
2022/04/17 06:51:00;;;;;;;5.65;3.03;;;9.30;51.50;;;;;;8375277;28;19925;-73
2022/04/17 06:55:03;;;;;;;5.53;2.50;;;9.40;50.10;;;;;;8374757;28;20045;-73
2022/04/17 06:59:05;;;;;;;5.05;2.55;;;9.60;51.80;;;;;;8362361;28;20049;-73
2022/04/17 07:03:07;;;;;;;5.75;2.78;;;9.70;52.30;;;;;;8359621;28;20052;-73
2022/04/17 07:07:09;;;;;;;5.47;3.10;;;9.80;51.10;;;;;;8361148;28;20067;-73
2022/04/17 07:11:11;;;;;;;5.00;2.60;;;9.90;51.70;;;;;;8399173;27;20060;-73
2022/04/17 07:15:13;;;;;;;7.05;3.38;;;10.00;51.70;;;;;;8373113;28;20075;-73
2022/04/17 07:19:16;;;;;;;5.32;2.50;;;10.10;50.70;;;;;;8376085;28;20607;-73
2022/04/17 07:23:18;;;;;;;6.78;3.17;;;10.20;51.80;;;;;;8373328;28;20055;-73
2022/04/17 07:27:20;;;;;;;5.30;3.10;;;10.30;51.40;;;;;;8375579;28;20044;-73
2022/04/17 07:31:22;;;;;;;4.90;2.78;;;10.40;54.00;;;;;;8376163;28;20048;-73
2022/04/17 07:35:25;;;;;;;6.30;2.80;;;10.50;51.60;;;;;;8368172;28;20139;-73
2022/04/17 07:39:27;;;;;;;4.85;2.60;;;10.70;51.40;;;;;;8370571;28;20064;-73
2022/04/17 07:43:29;;;;;;;4.95;2.60;;;10.90;53.50;;;;;;8367216;28;20052;-73
2022/04/17 07:47:31;;;;;;;5.32;2.40;;;11.00;51.20;;;;;;8384609;28;19928;-73
2022/04/17 07:51:33;;;;;;;4.47;2.28;;;11.10;51.20;;;;;;8376098;28;20037;-73
2022/04/17 07:55:35;;;;;;;4.97;2.60;;;11.20;51.10;;;;;;8403657;27;20056;-73
2022/04/17 07:59:36;;;;;;;4.45;2.08;;;11.40;50.90;;;;;;8378433;28;20329;-73
2022/04/17 08:03:58;;;;;;;4.63;2.33;;;11.50;52.20;;;;;;8409830;28;20473;-73
2022/04/17 08:08:00;;;;;;;6.75;2.85;;;11.60;52.20;;;;;;8373235;28;20052;-73
2022/04/17 08:12:02;;;;;;;4.68;2.33;;;11.80;51.30;;;;;;8369860;28;20056;-73
2022/04/17 08:16:08;;;;;;;;;;;11.90;52.20;;;;;;8368207;28;20284;-73
2022/04/17 08:20:14;;;;;;;;;;;12.10;52.00;;;;;;8369964;28;19924;-74
2022/04/17 08:24:16;;;;;;;;;;;12.30;52.70;;;;;;8374743;28;19924;-73
2022/04/17 08:28:18;;;;;;;;;;;12.20;51.60;;;;;;8375992;28;19924;-73
2022/04/17 08:32:19;;;;;;;;;;;12.30;51.80;;;;;;8369453;28;20264;-73
2022/04/17 08:36:21;;;;;;;;;;;12.40;51.90;;;;;;8376275;28;19921;-74
2022/04/17 08:40:24;;;;;;;;;;;12.50;52.70;;;;;;8377872;28;19920;-73
2022/04/17 08:44:26;;;;;;;;;;;12.60;52.00;;;;;;8375972;28;19928;-73
2022/04/17 08:48:27;;;;;;;;;;;12.90;54.50;;;;;;8367287;28;19939;-74
2022/04/17 08:52:30;;;;;;;;;;;13.00;53.80;;;;;;8365087;28;20451;-73
2022/04/17 08:56:32;;;;;;;;;;;13.10;53.50;;;;;;8361968;28;19990;-73
2022/04/17 09:00:33;;;;;;;;;;;13.30;54.40;;;;;;8364745;28;19928;-73
2022/04/17 09:04:35;;;;;;;;;;;13.50;53.40;;;;;;8381834;28;19920;-74
2022/04/17 09:08:55;;;;;;;;;;;13.70;54.50;;;;;;8361069;28;19925;-73
2022/04/17 09:12:59;;;;;;;;;;;13.80;54.00;;;;;;8370407;28;19931;-74
2022/04/17 09:17:01;;;;;;;4.43;2.22;;;13.90;54.00;;;;;;8365873;28;20418;-74
2022/04/17 09:21:02;;;;;;;;;;;14.00;55.00;;;;;;8366045;28;20060;-73
2022/04/17 09:25:10;;;;;;;;;;;14.10;54.10;;;;;;8366882;28;20203;-73
2022/04/17 09:29:23;;;;;;;;;;;14.30;54.20;;;;;;8365577;28;19921;-73
2022/04/17 09:33:34;;;;;;;;;;;14.40;53.30;;;;;;8368061;28;19975;-74
2022/04/17 09:37:39;;;;;;;;;;;14.50;52.90;;;;;;8362085;28;20007;-74
2022/04/17 09:41:57;;;;;;;;;;;14.60;53.00;;;;;;8396778;27;19929;-73
2022/04/17 09:45:59;;;;;;;;;;;14.70;54.00;;;;;;8365522;28;19925;-74
2022/04/17 09:50:04;;;;;;;;;;;14.80;53.90;;;;;;8369689;28;19927;-73
2022/04/17 09:54:07;;;;;;;;;;;14.90;54.40;;;;;;8365423;28;20011;-74
2022/04/17 09:58:11;;;;;;;;;;;15.10;53.40;;;;;;8366615;28;20062;-73
2022/04/17 10:02:14;;;;;;;;;;;15.10;53.70;;;;;;8362254;28;19928;-74
2022/04/17 10:06:17;;;;;;;;;;;15.10;53.70;;;;;;8371034;28;19955;-74
2022/04/17 10:10:19;;;;;;;;;;;15.20;53.60;;;;;;8365489;28;20398;-74
2022/04/17 10:14:21;;;;;;;;;;;15.40;54.60;;;;;;8370932;28;19959;-73
2022/04/17 10:18:23;;;;;;;;;;;15.70;54.60;;;;;;8365677;28;19931;-73
2022/04/17 10:22:26;;;;;;;;;;;16.00;54.20;;;;;;8362270;28;19947;-73
2022/04/17 10:26:37;;;;;;;;;;;16.30;54.50;;;;;;8375405;28;19924;-74
2022/04/17 10:30:59;;;;;;;;;;;16.60;55.90;;;;;;8371067;28;19924;-74
2022/04/17 10:35:15;;;;;;;;;;;17.00;57.50;;;;;;8361565;28;20288;-74
2022/04/17 10:39:23;;;;;;;;;;;17.50;62.80;;;;;;8393205;28;19924;-74
2022/04/17 10:43:44;;;;;;;;;;;18.20;67.60;;;;;;8369948;28;19921;-74
2022/04/17 10:48:00;;;;;;;;;;;18.50;73.60;;;;;;8371685;28;20612;-74
2022/04/17 10:52:01;;;;;;;;;;;18.90;75.20;;;;;;8366070;28;20000;-74
2022/04/17 10:56:07;;;;;;;;;;;19.10;78.00;;;;;;8372504;28;19931;-74
2022/04/17 11:00:23;;;;;;;;;;;19.40;78.30;;;;;;8358085;28;19928;-74
2022/04/17 11:04:55;;;;;;;;;;;19.70;80.70;;;;;;8360711;28;19920;-73
2022/04/17 11:09:04;;;;;;;;;;;20.00;79.30;;;;;;8359411;28;19925;-73
2022/04/17 11:13:05;;;;;;;;;;;20.10;80.60;;;;;;8363614;28;19920;-74
2022/04/17 11:17:08;;;;;;;;;;;20.10;78.10;;;;;;8368368;28;19924;-74
2022/04/17 11:21:11;;;;;;;;;;;20.00;77.30;;;;;;8363249;28;19956;-74
2022/04/17 11:25:13;;;;;;;;;;;19.70;73.10;;;;;;8360662;28;19929;-74
2022/04/17 11:29:14;;;;;;;;;;;19.80;72.30;;;;;;8359192;28;20350;-73
2022/04/17 11:33:17;;;;;;;;;;;20.30;75.20;;;;;;8358818;28;19928;-74
2022/04/17 11:37:27;;;;;;;3.92;1.77;;;20.70;77.30;;;;;;8362944;28;20295;-74
2022/04/17 11:41:31;;;;;;;4.05;1.60;;;21.20;80.40;;;;;;8367103;28;20044;-75
2022/04/17 11:45:33;;;;;;;;;;;21.70;83.50;;;;;;8360046;28;20078;-74
2022/04/17 11:49:41;;;;;;;;;;;21.90;82.00;;;;;;8357391;28;20080;-74
2022/04/17 11:53:43;;;;;;;;;;;21.70;76.20;;;;;;8362910;28;19928;-74
2022/04/17 11:57:45;;;;;;;;;;;21.50;74.10;;;;;;8362031;28;19928;-74
2022/04/17 12:02:05;;;;;;;4.20;2.58;;;21.80;76.20;;;;;;8357036;28;19928;-74
2022/04/17 12:06:09;;;;;;;;;;;22.20;78.60;;;;;;8392083;28;20045;-74
2022/04/17 12:10:14;;;;;;;;;;;22.70;83.40;;;;;;8358947;28;19921;-74
2022/04/17 12:14:31;;;;;;;;;;;23.10;86.20;;;;;;8361908;28;20059;-74
2022/04/17 12:18:33;;;;;;;;;;;23.60;89.80;;;;;;8369823;28;20377;-74
2022/04/17 12:22:36;;;;;;;4.70;2.75;;;23.80;90.40;;;;;;8387955;28;19925;-74
2022/04/17 12:26:38;;;;;;;;;;;23.30;84.70;;;;;;8361639;28;20049;-74
2022/04/17 12:30:41;;;;;;;;;;;22.70;78.80;;;;;;8393156;28;19931;-74
2022/04/17 12:34:46;;;;;;;;;;;22.20;72.30;;;;;;8365391;28;19920;-74
2022/04/17 12:38:55;;;;;;;;;;;22.00;66.50;;;;;;8371698;28;20026;-74
2022/04/17 12:43:12;;;;;;;;;;;21.70;60.90;;;;;;8363090;28;20368;-74
2022/04/17 12:47:14;;;;;;;;;;;21.50;58.50;;;;;;8367940;28;19924;-74
2022/04/17 12:51:24;;;;;;;;;;;21.40;56.40;;;;;;8366209;28;19925;-73
2022/04/17 12:55:34;;;;;;;;;;;21.30;53.10;;;;;;8363858;28;19921;-73
2022/04/17 12:59:42;;;;;;;;;;;21.10;52.10;;;;;;8365751;28;19920;-74
2022/04/17 13:03:44;;;;;;;;;;;21.00;52.60;;;;;;8365517;28;19928;-74
2022/04/17 13:07:46;;;;;;;;;;;21.10;51.50;;;;;;8365076;28;19929;-74
2022/04/17 13:11:49;;;;;;;;;;;21.20;54.00;;;;;;8373705;28;19928;-74
2022/04/17 13:15:59;;;;;;;;;;;21.50;58.60;;;;;;8398271;27;19924;-74
2022/04/17 13:20:01;;;;;;;;;;;21.80;59.50;;;;;;8365191;28;20299;-74
2022/04/17 13:24:03;;;;;;;;;;;21.80;58.30;;;;;;8363239;28;20236;-74
2022/04/17 13:28:05;;;;;;;;;;;21.80;57.60;;;;;;8371631;28;19925;-74
2022/04/17 13:32:09;;;;;;;;;;;21.80;54.80;;;;;;8366712;28;20296;-74
2022/04/17 13:36:14;;;;;;;;;;;21.80;54.10;;;;;;8363802;28;19928;-74
2022/04/17 13:40:15;;;;;;;;;;;21.80;52.80;;;;;;8361538;28;19935;-75
2022/04/17 13:44:17;;;;;;;;;;;21.80;51.60;;;;;;8370696;28;20000;-74
2022/04/17 13:48:19;;;;;;;;;;;21.90;51.60;;;;;;8369143;28;19921;-73
2022/04/17 13:52:20;;;;;;;;;;;22.10;51.10;;;;;;8365518;28;19928;-74
2022/04/17 13:56:22;;;;;;;;;;;22.40;51.50;;;;;;8367235;28;19924;-74
2022/04/17 14:00:24;;;;;;;;;;;23.20;54.50;;;;;;8369471;28;19920;-74
2022/04/17 14:04:26;;;;;;;;;;;24.10;60.00;;;;;;8361392;28;19920;-74
2022/04/17 14:08:28;;;;;;;;;;;25.10;66.00;;;;;;8358776;28;19928;-74
2022/04/17 14:12:29;;;;;;;;;;;26.20;73.80;;;;;;8363584;28;25077;-74
2022/04/17 14:16:31;;;;;;;;;;;27.10;78.20;;;;;;8366039;28;19925;-75
2022/04/17 14:20:34;;;;;;;;;;;27.60;80.50;;;;;;8364862;28;19995;-75
2022/04/17 14:24:36;;;;;;;;;;;28.10;80.60;;;;;;8360561;28;20331;-74
2022/04/17 14:28:37;;;;;;;;;;;28.60;80.40;;;;;;8362190;28;20062;-75
2022/04/17 14:32:39;;;;;;;;;;;28.70;77.30;;;;;;8362910;28;19925;-75
2022/04/17 14:36:41;;;;;;;;;;;28.80;75.10;;;;;;8363861;28;19921;-74
2022/04/17 14:40:42;;;;;;;;;;;29.00;75.30;;;;;;8360274;28;20385;-74
2022/04/17 14:44:44;;;;;;;;;;;29.20;73.40;;;;;;8355524;28;20364;-75
2022/04/17 14:48:45;;;;;;;;;;;29.30;71.90;;;;;;8361288;28;20099;-75
2022/04/17 14:52:48;;;;;;;;;;;29.00;70.20;;;;;;8361492;28;20579;-75
2022/04/17 14:56:50;;;;;;;;;;;29.20;68.70;;;;;;8367294;28;20276;-74
2022/04/17 15:00:52;;;;;;;;;;;29.60;69.80;;;;;;8362529;28;20368;-74
2022/04/17 15:04:54;;;;;;;;;;;29.90;65.90;;;;;;8358801;28;20362;-75
2022/04/17 15:08:55;;;;;;;;;;;29.90;67.00;;;;;;8389315;28;20368;-75
2022/04/17 15:12:57;;;;;;;;;;;30.10;65.40;;;;;;8364825;28;20537;-75
2022/04/17 15:16:59;;;;;;;;;;;30.20;65.70;;;;;;8367610;28;19924;-76
2022/04/17 15:21:01;;;;;;;;;;;30.50;65.90;;;;;;8365848;28;20048;-74
2022/04/17 15:25:06;;;;;;;;;;;30.90;66.90;;;;;;8360497;28;20045;-75
2022/04/17 15:29:08;;;;;;;;;;;31.10;62.50;;;;;;8357417;28;20131;-75
2022/04/17 15:33:09;;;;;;;;;;;31.20;64.50;;;;;;8362651;28;19974;-76
2022/04/17 15:37:11;;;;;;;;;;;31.60;63.50;;;;;;8360449;28;20060;-75
2022/04/17 15:41:13;;;;;;;;;;;32.10;61.90;;;;;;8356315;28;20056;-75
2022/04/17 15:49:35;;;;;;;;;;;32.60;59.50;;;;;;8370419;28;20715;-75
2022/04/17 15:53:37;;;;;;;;;;;32.80;58.70;;;;;;8370651;28;20074;-75
2022/04/17 15:57:40;;;;;;;;;;;33.00;57.60;;;;;;8360197;28;20068;-75
2022/04/17 16:01:41;;;;;;;;;;;33.20;57.10;;;;;;8368152;28;20056;-75
2022/04/17 16:05:44;;;;;;;;;;;33.40;55.30;;;;;;8366635;28;20040;-75
2022/04/17 16:09:46;;;;;;;;;;;33.40;51.60;;;;;;8365685;28;20059;-75
2022/04/17 16:13:49;;;;;;;;;;;33.20;52.20;;;;;;8365315;28;20055;-76
2022/04/17 16:17:50;;;;;;;;;;;33.30;50.90;;;;;;8373857;28;20127;-75
2022/04/17 16:21:52;;;;;;;;;;;33.20;50.10;;;;;;8366344;28;20111;-75
2022/04/17 16:25:54;;;;;;;;;;;33.30;48.10;;;;;;8360903;28;20070;-75
2022/04/17 16:29:56;;;;;;;;;;;33.40;47.90;;;;;;8364016;28;20055;-75
2022/04/17 16:33:58;;;;;;;;;;;33.60;46.80;;;;;;8367403;28;20848;-75
2022/04/17 16:38:01;;;;;;;;;;;33.70;46.60;;;;;;8367657;28;20450;-76
2022/04/17 16:42:03;;;;;;;;;;;34.00;45.60;;;;;;8378478;28;20348;-75
2022/04/17 16:46:07;;;;;;;;;;;34.00;44.40;;;;;;8372316;28;19920;-75
2022/04/17 16:50:09;;;;;;;;;;;33.70;42.50;;;;;;8357129;28;19928;-76
2022/04/17 16:54:10;;;;;;;;;;;33.40;42.50;;;;;;8357496;28;25066;-75
2022/04/17 17:02:32;;;;;;;;;;;33.50;41.30;;;;;;8362520;28;19928;-75
2022/04/17 17:06:35;;;;;;;2.78;1.50;;;33.60;40.60;;;;;;8365581;28;20016;-75
2022/04/17 17:10:37;;;;;;;;;;;33.50;39.90;;;;;;8357984;28;20052;-75
2022/04/17 17:14:43;;;;;;;;;;;33.40;39.30;;;;;;8363788;28;25064;-76
2022/04/17 17:18:45;;;;;;;;;;;33.00;38.20;;;;;;8360834;28;20006;-75
2022/04/17 17:22:47;;;;;;;;;;;32.90;37.90;;;;;;8367177;28;19928;-75
2022/04/17 17:26:48;;;;;;;;;;;32.90;37.40;;;;;;8371496;28;19920;-75
2022/04/17 17:30:52;;;;;;;;;;;32.80;36.90;;;;;;8373891;28;19929;-75
2022/04/17 17:34:53;;;;;;;;;;;32.70;35.70;;;;;;8372176;28;20363;-75
2022/04/17 17:38:55;;;;;;;;;;;32.20;35.20;;;;;;8374716;28;19920;-75
2022/04/17 17:42:57;;;;;;;;;;;31.90;34.70;;;;;;8367669;28;20414;-75
2022/04/17 17:47:00;;;;;;;;;;;31.70;34.10;;;;;;8370115;28;20353;-75
2022/04/17 17:51:02;;;;;;;;;;;31.40;33.70;;;;;;8371914;28;20363;-74
2022/04/17 17:55:04;;;;;;;3.60;1.88;;;31.00;33.20;;;;;;8368802;28;20365;-75
2022/04/17 17:59:09;;;;;;;3.30;1.70;;;30.70;32.80;;;;;;8372350;28;20115;-76
2022/04/17 18:03:11;;;;;;;;;;;30.00;32.30;;;;;;8370729;28;20056;-75
2022/04/17 18:07:12;;;;;;;;;;;29.20;31.80;;;;;;8375893;28;19920;-75
2022/04/17 18:15:35;;;;;;;;;;;27.40;31.20;;;;;;8374579;28;19927;-75
2022/04/17 18:19:38;;;;;;;;;;;26.50;31.00;;;;;;8372203;28;19921;-74
2022/04/17 18:23:40;;;;;;;;;;;25.60;30.70;;;;;;8372784;28;19928;-75
2022/04/17 18:27:41;;;;;;;;;;;24.90;30.60;;;;;;8374233;28;19932;-74
2022/04/17 18:31:43;;;;;;;;;;;24.30;30.30;;;;;;8409973;27;19924;-75
2022/04/17 18:35:45;;;;;;;;;;;23.80;30.20;;;;;;8373541;28;19960;-74
2022/04/17 18:39:47;;;;;;;;;;;23.40;30.00;;;;;;8367820;28;19972;-74
2022/04/17 18:43:48;;;;;;;;;;;23.00;29.90;;;;;;8370127;28;19929;-74
2022/04/17 18:47:53;;;;;;;;;;;22.70;29.80;;;;;;8377366;28;19921;-74
2022/04/17 18:51:55;;;;;;;;;;;22.40;29.60;;;;;;8377652;28;19925;-73
2022/04/17 18:55:58;;;;;;;;;;;22.00;29.60;;;;;;8386451;28;19932;-74
2022/04/17 19:00:00;;;;;;;;;;;21.70;29.50;;;;;;8358908;28;19947;-73
2022/04/17 19:04:02;;;;;;;;;;;21.60;29.50;;;;;;8363509;28;19928;-73
2022/04/17 19:08:04;;;;;;;;;;;21.40;29.50;;;;;;8363665;28;19960;-73
2022/04/17 19:16:33;;;;;;;;;;;20.90;29.40;;;;;;8361577;28;19984;-74
2022/04/17 19:20:34;;;;;;;;;;;20.60;29.30;;;;;;8363371;28;19921;-73
2022/04/17 19:24:38;;;;;;;;;;;20.40;29.30;;;;;;8361676;28;19931;-73
2022/04/17 19:28:39;;;;;;;;;;;20.40;29.30;;;;;;8366884;28;20403;-73
2022/04/17 19:37:01;;;;;;;;;;;20.10;29.30;;;;;;8364893;28;19936;-73
2022/04/17 19:41:03;;;;;;;;;;;19.90;29.30;;;;;;8360277;28;19921;-73
2022/04/17 19:45:10;;;;;;;;;;;19.60;29.40;;;;;;8362458;28;19924;-73
2022/04/17 19:49:12;;;;;;;;;;;19.40;29.20;;;;;;8362714;28;19925;-73
2022/04/17 19:53:13;;;;;;;;;;;19.30;29.40;;;;;;8355110;28;19928;-74
2022/04/17 19:57:15;;;;;;;;;;;19.10;29.50;;;;;;8362415;28;19924;-74
2022/04/17 20:01:17;;;;;;;;;;;18.80;29.40;;;;;;8359224;28;19931;-74
2022/04/17 20:05:18;;;;;;;;;;;18.60;29.50;;;;;;8359063;28;19924;-73
2022/04/17 20:09:20;;;;;;;;;;;18.40;29.40;;;;;;8356410;28;19921;-73
2022/04/17 20:13:22;;;;;;;;;;;18.30;29.20;;;;;;8358804;28;19932;-73
2022/04/17 20:17:23;;;;;;;;;;;18.20;29.30;;;;;;8355098;28;19929;-73
2022/04/17 20:21:25;;;;;;;;;;;18.10;29.30;;;;;;8358865;28;20000;-73
2022/04/17 20:25:27;;;;;;;;;;;18.00;29.30;;;;;;8357754;28;19920;-73
2022/04/17 20:29:29;;;;;;;;;;;17.80;29.30;;;;;;8359147;28;19935;-73
2022/04/17 20:33:31;;;;;;;;;;;17.70;29.20;;;;;;8355666;28;19924;-73
2022/04/17 20:37:32;;;;;;;;;;;17.60;29.10;;;;;;8358369;28;20311;-74
2022/04/17 20:41:34;;;;;;;;;;;17.50;29.10;;;;;;8360557;28;19931;-73
2022/04/17 20:54:17;;;;;;;;;;;17.30;29.10;;;;;;8363956;28;19939;-73
2022/04/17 20:58:19;;;;;;;;;;;17.20;29.00;;;;;;8361883;28;19929;-74
2022/04/17 21:02:21;;;;;;;;;;;17.10;29.10;;;;;;8377576;28;19927;-73
2022/04/17 21:06:24;;;;;;;;;;;17.00;29.20;;;;;;8380994;28;19920;-73
2022/04/17 21:10:26;;;;;;;;;;;16.90;29.00;;;;;;8384360;28;20015;-73
2022/04/17 21:14:28;;;;;;;;;;;16.90;29.00;;;;;;8387911;28;19920;-73
2022/04/17 21:18:29;;;;;;;;;;;16.90;29.00;;;;;;8393923;28;19923;-73
2022/04/17 21:22:32;;;;;;;;;;;16.80;28.90;;;;;;8391813;28;19930;-74
2022/04/17 21:26:34;;;;;;;;;;;16.80;28.90;;;;;;8385916;28;20376;-73
2022/04/17 21:30:38;;;;;;;;;;;16.70;29.00;;;;;;8390113;28;19936;-73
2022/04/17 21:34:40;;;;;;;;;;;16.60;29.00;;;;;;8392654;28;19948;-73
2022/04/17 21:38:42;;;;;;;;;;;16.50;29.00;;;;;;8397616;28;19925;-73
2022/04/17 21:42:44;;;;;;;;;;;16.40;28.80;;;;;;8388106;28;19935;-73
2022/04/17 21:46:45;;;;;;;;;;;16.30;28.90;;;;;;8384829;28;19921;-74
2022/04/17 21:50:47;;;;;;;;;;;16.20;28.70;;;;;;8383501;28;19960;-73
2022/04/17 21:54:49;;;;;;;;;;;16.10;28.90;;;;;;8391872;28;19921;-73
2022/04/17 21:58:50;;;;;;;;;;;16.00;29.00;;;;;;8413029;28;19928;-73
2022/04/17 22:07:13;;;;;;;;;;;15.90;29.00;;;;;;8386434;28;19964;-73
2022/04/17 22:11:14;;;;;;;;;;;15.70;28.90;;;;;;8385217;28;20411;-73
2022/04/17 22:15:16;;;;;;;;;;;15.70;29.00;;;;;;8381705;28;19946;-73
2022/04/17 22:19:18;;;;;;;;;;;15.50;29.20;;;;;;8385464;28;20390;-73
2022/04/17 22:23:19;;;;;;;;;;;15.50;29.20;;;;;;8386867;28;20360;-73
2022/04/17 22:27:21;;;;;;;;;;;15.40;28.90;;;;;;8383904;28;20271;-73
2022/04/17 22:31:23;;;;;;;;;;;15.30;28.80;;;;;;8384622;28;19939;-73
2022/04/17 22:35:26;;;;;;;;;;;15.20;28.90;;;;;;8389208;28;19920;-73
2022/04/17 22:39:28;;;;;;;;;;;15.10;28.90;;;;;;8384293;28;19920;-73
2022/04/17 22:43:29;;;;;;;;;;;15.00;28.80;;;;;;8386116;28;19929;-73
2022/04/17 22:47:31;;;;;;;;;;;14.90;28.80;;;;;;8388429;28;19929;-73
2022/04/17 22:51:33;;;;;;;;;;;14.90;29.20;;;;;;8387295;28;19926;-73
2022/04/17 22:55:34;;;;;;;;;;;14.80;28.80;;;;;;8385921;28;19928;-73
2022/04/17 22:59:36;;;;;;;;;;;14.70;28.80;;;;;;8387495;28;19935;-77
2022/04/17 23:03:38;;;;;;;;;;;14.60;28.80;;;;;;8391507;28;19920;-73
2022/04/17 23:07:39;;;;;;;;;;;14.50;29.40;;;;;;8379429;28;19927;-73
2022/04/17 23:11:41;;;;;;;;;;;14.40;28.90;;;;;;8385339;28;19951;-72
2022/04/17 23:15:42;;;;;;;;;;;14.40;28.90;;;;;;8386564;28;19931;-73
2022/04/17 23:19:44;;;;;;;;;;;14.20;29.00;;;;;;8387559;28;20308;-73
2022/04/17 23:23:46;;;;;;;;;;;14.10;28.90;;;;;;8387445;28;19924;-73
2022/04/17 23:27:47;;;;;;;;;;;14.10;28.90;;;;;;8385481;28;20368;-73
2022/04/17 23:31:50;;;;;;;;;;;14.00;28.90;;;;;;8388242;28;19928;-73
2022/04/17 23:35:53;;;;;;;;;;;13.90;28.90;;;;;;8379715;28;19947;-73
2022/04/17 23:39:55;;;;;;;;;;;13.80;28.90;;;;;;8385546;28;19932;-73
2022/04/17 23:43:57;;;;;;;;;;;13.80;29.10;;;;;;8381946;28;20914;-73
2022/04/17 23:47:58;;;;;;;;;;;13.60;29.10;;;;;;8393063;28;19920;-73
2022/04/17 23:52:00;;;;;;;;;;;13.50;29.10;;;;;;8390184;28;20356;-73
2022/04/17 23:56:02;;;;;;;;;;;13.40;29.10;;;;;;8389191;28;19928;-73
